createdAt,value
2022-09-12T00:01:14.283Z,87.80
2022-09-12T00:04:17.940Z,88.50
2022-09-12T00:07:20.130Z,89.07
2022-09-12T00:10:22.297Z,89.44
2022-09-12T00:13:24.628Z,89.14
2022-09-12T00:16:28.631Z,88.69
2022-09-12T00:19:30.979Z,88.90
2022-09-12T00:22:33.156Z,90.10
2022-09-12T00:25:35.433Z,90.55
2022-09-12T00:28:38.757Z,90.49
2022-09-12T00:31:41.578Z,90.21
2022-09-12T00:34:43.749Z,90.17
2022-09-12T00:37:46.264Z,90.16
2022-09-12T00:40:48.909Z,91.01
2022-09-12T00:43:56.930Z,90.75
2022-09-12T00:47:13.772Z,90.21
2022-09-12T00:50:16.712Z,90.79
2022-09-12T00:53:18.852Z,90.01
2022-09-12T00:56:22.207Z,90.20
2022-09-12T00:59:31.807Z,90.58
2022-09-12T01:02:34.560Z,91.46
2022-09-12T01:05:40.074Z,91.29
2022-09-12T01:08:43.615Z,91.52
2022-09-12T01:11:47.056Z,91.96
2022-09-12T01:14:49.391Z,91.94
2022-09-12T01:18:13.098Z,91.87
2022-09-12T01:21:34.815Z,92.00
2022-09-12T01:24:55.319Z,92.53
2022-09-12T01:28:16.377Z,92.15
2022-09-12T01:31:38.516Z,91.90
2022-09-12T01:34:46.196Z,91.50
2022-09-12T01:38:12.574Z,92.33
2022-09-12T01:41:26.633Z,92.53
2022-09-12T01:44:54.937Z,92.87
2022-09-12T01:48:07.496Z,93.27
2022-09-12T01:51:24.074Z,92.52
2022-09-12T01:54:32.545Z,92.28
2022-09-12T01:57:42.202Z,92.06
2022-09-12T02:01:00.824Z,92.51
2022-09-12T02:04:19.057Z,92.06
2022-09-12T02:07:27.514Z,92.06
2022-09-12T02:10:33.718Z,92.09
2022-09-12T02:13:43.570Z,92.59
2022-09-12T02:16:50.039Z,92.20
2022-09-12T02:19:56.804Z,92.36
2022-09-12T02:23:00.764Z,92.06
2022-09-12T02:26:16.268Z,92.17
2022-09-12T02:29:18.460Z,91.92
2022-09-12T02:32:21.188Z,92.18
2022-09-12T02:35:31.524Z,92.66
2022-09-12T02:38:40.674Z,92.27
2022-09-12T02:41:42.768Z,91.77
2022-09-12T02:44:44.993Z,93.05
2022-09-12T02:48:03.282Z,91.87
2022-09-12T02:51:05.911Z,91.73
2022-09-12T02:54:09.324Z,91.96
2022-09-12T02:57:22.571Z,93.12
2022-09-12T03:00:25.370Z,93.19
2022-09-12T03:03:46.873Z,92.44
2022-09-12T03:07:10.994Z,92.78
2022-09-12T03:10:50.627Z,93.18
2022-09-12T03:14:05.010Z,93.50
2022-09-12T03:17:25.341Z,92.25
2022-09-12T03:21:01.909Z,92.26
2022-09-12T03:24:26.331Z,92.69
2022-09-12T03:27:37.475Z,92.91
2022-09-12T03:30:41.946Z,93.54
2022-09-12T03:33:44.109Z,93.35
2022-09-12T03:36:46.631Z,92.60
2022-09-12T03:39:48.629Z,93.64
2022-09-12T03:42:51.001Z,93.23
2022-09-12T03:45:53.709Z,93.07
2022-09-12T03:48:56.102Z,93.03
2022-09-12T03:51:58.427Z,92.23
2022-09-12T03:55:00.735Z,91.99
2022-09-12T03:58:02.806Z,92.03
2022-09-12T04:01:12.952Z,92.32
2022-09-12T04:04:15.527Z,93.53
2022-09-12T04:07:17.871Z,93.86
2022-09-12T04:10:20.093Z,93.78
2022-09-12T04:13:22.352Z,93.49
2022-09-12T04:16:24.436Z,93.87
2022-09-12T04:19:27.245Z,92.83
2022-09-12T04:22:30.204Z,93.12
2022-09-12T04:25:32.468Z,93.12
2022-09-12T04:28:36.258Z,93.51
2022-09-12T04:31:38.758Z,92.50
2022-09-12T04:34:40.980Z,93.09
2022-09-12T04:37:43.196Z,93.19
2022-09-12T04:40:45.184Z,93.19
2022-09-12T04:43:48.497Z,92.70
2022-09-12T04:46:51.014Z,93.11
2022-09-12T04:49:53.226Z,93.29
2022-09-12T04:52:55.697Z,93.38
2022-09-12T04:56:02.499Z,93.26
2022-09-12T04:59:04.738Z,92.61
2022-09-12T05:02:07.290Z,92.33
2022-09-12T05:05:10.155Z,92.24
2022-09-12T05:08:12.394Z,91.92
2022-09-12T05:11:20.462Z,91.65
2022-09-12T05:14:25.204Z,92.46
2022-09-12T05:17:29.505Z,91.93
2022-09-12T05:20:33.466Z,92.53
2022-09-12T05:23:35.990Z,92.38
2022-09-12T05:26:38.680Z,92.49
2022-09-12T05:29:40.719Z,93.22
2022-09-12T05:32:42.952Z,92.66
2022-09-12T05:35:51.364Z,92.29
2022-09-12T05:38:54.139Z,91.75
2022-09-12T05:41:56.404Z,91.83
2022-09-12T05:44:58.754Z,91.43
2022-09-12T05:48:00.790Z,91.15
2022-09-12T05:51:11.132Z,91.53
2022-09-12T05:54:17.363Z,91.24
2022-09-12T05:57:19.640Z,91.98
2022-09-12T06:00:21.692Z,92.51
2022-09-12T06:03:23.997Z,92.68
2022-09-12T06:06:27.737Z,92.97
2022-09-12T06:09:30.133Z,93.61
2022-09-12T06:12:32.209Z,94.00
2022-09-12T06:15:34.484Z,94.64
2022-09-12T06:18:37.788Z,94.86
2022-09-12T06:21:40.231Z,95.80
2022-09-12T06:24:42.307Z,94.96
2022-09-12T06:27:44.500Z,95.56
2022-09-12T06:30:46.607Z,94.40
2022-09-12T06:33:50.830Z,94.92
2022-09-12T06:36:53.385Z,93.93
2022-09-12T06:39:56.498Z,94.37
2022-09-12T06:42:58.815Z,94.30
2022-09-12T06:46:13.292Z,94.86
2022-09-12T06:49:15.899Z,94.52
2022-09-12T06:52:18.186Z,95.22
2022-09-12T06:55:23.510Z,95.19
2022-09-12T06:58:29.907Z,96.12
2022-09-12T07:01:32.848Z,95.44
2022-09-12T07:04:36.707Z,95.44
2022-09-12T07:07:38.796Z,95.28
2022-09-12T07:10:41.020Z,95.30
2022-09-12T07:13:45.514Z,94.04
2022-09-12T07:16:47.897Z,94.87
2022-09-12T07:19:49.961Z,95.13
2022-09-12T07:22:52.449Z,95.73
2022-09-12T07:25:57.098Z,95.17
2022-09-12T07:32:23.020Z,93.42
2022-09-12T07:35:25.746Z,92.33
2022-09-12T07:38:27.802Z,92.05
2022-09-12T07:41:33.825Z,91.76
2022-09-12T07:44:35.941Z,90.64
2022-09-12T07:47:38.187Z,89.89
2022-09-12T07:50:44.998Z,90.86
2022-09-12T07:53:49.158Z,90.44
2022-09-12T07:56:51.756Z,89.26
2022-09-12T07:59:53.993Z,89.99
2022-09-12T08:02:56.719Z,89.06
2022-09-12T08:06:05.583Z,88.81
2022-09-12T08:09:07.954Z,88.27
2022-09-12T08:12:10.327Z,89.72
2022-09-12T08:15:12.469Z,89.91
2022-09-12T08:18:14.666Z,90.46
2022-09-12T08:21:24.806Z,88.63
2022-09-12T08:24:27.885Z,87.93
2022-09-12T08:27:30.018Z,87.80
2022-09-12T08:30:32.377Z,88.88
2022-09-12T08:33:35.125Z,88.89
2022-09-12T08:36:37.512Z,88.62
2022-09-12T08:39:39.964Z,86.91
2022-09-12T08:43:07.400Z,86.37
2022-09-12T08:46:16.017Z,86.04
2022-09-12T08:50:03.738Z,85.09
2022-09-12T08:53:21.664Z,84.70
2022-09-12T08:56:31.568Z,84.93
2022-09-12T08:59:42.966Z,84.54
2022-09-12T09:03:10.339Z,84.15
2022-09-12T09:06:27.215Z,83.72
2022-09-12T09:09:54.799Z,83.70
2022-09-12T09:12:56.873Z,83.81
2022-09-12T09:16:24.965Z,82.48
2022-09-12T09:19:32.956Z,82.12
2022-09-12T09:22:38.238Z,81.35
2022-09-12T09:26:03.211Z,82.07
2022-09-12T09:29:18.501Z,82.63
2022-09-12T09:32:29.783Z,81.95
2022-09-12T09:35:44.999Z,81.55
2022-09-12T09:38:50.815Z,82.01
2022-09-12T09:42:18.090Z,81.97
2022-09-12T09:45:24.121Z,82.42
2022-09-12T09:48:36.055Z,81.85
2022-09-12T09:51:40.880Z,81.87
2022-09-12T09:54:54.287Z,82.36
2022-09-12T09:57:56.401Z,82.20
2022-09-12T10:01:06.830Z,81.96
2022-09-12T10:04:27.047Z,82.97
2022-09-12T10:07:29.458Z,82.70
2022-09-12T10:10:31.512Z,83.61
2022-09-12T10:13:42.936Z,82.24
2022-09-12T10:16:55.200Z,81.99
2022-09-12T10:20:17.565Z,82.06
2022-09-12T10:23:37.295Z,81.20
2022-09-12T10:26:40.920Z,82.18
2022-09-12T10:29:51.917Z,83.03
2022-09-12T10:32:58.981Z,83.25
2022-09-12T10:36:01.307Z,83.53
2022-09-12T10:39:04.680Z,81.68
2022-09-12T10:42:07.339Z,81.29
2022-09-12T10:45:36.312Z,82.38
2022-09-12T10:48:38.409Z,82.50
2022-09-12T10:51:40.715Z,80.77
2022-09-12T10:54:43.473Z,80.27
2022-09-12T10:58:07.434Z,79.51
2022-09-12T11:01:37.322Z,80.01
2022-09-12T11:04:56.138Z,79.79
2022-09-12T11:08:26.913Z,79.21
2022-09-12T11:11:44.102Z,78.62
2022-09-12T11:15:17.199Z,78.03
2022-09-12T11:18:50.270Z,76.95
2022-09-12T11:22:19.779Z,77.36
2022-09-12T11:25:48.495Z,78.23
2022-09-12T11:29:28.078Z,77.26
2022-09-12T11:32:52.727Z,78.15
2022-09-12T11:35:57.484Z,77.89
2022-09-12T11:39:10.001Z,77.83
2022-09-12T11:42:33.477Z,78.63
2022-09-12T11:45:41.588Z,76.94
2022-09-12T11:48:59.111Z,76.03
2022-09-12T11:52:24.898Z,75.06
2022-09-12T11:55:29.834Z,75.22
2022-09-12T11:58:32.195Z,73.44
2022-09-12T12:01:43.838Z,73.21
2022-09-12T12:05:20.817Z,74.06
2022-09-12T12:08:24.620Z,75.53
2022-09-12T12:11:40.004Z,73.56
2022-09-12T12:14:45.474Z,73.82
2022-09-12T12:18:16.463Z,74.13
2022-09-12T12:21:31.740Z,73.13
2022-09-12T12:24:34.307Z,73.60
2022-09-12T12:27:59.151Z,75.32
2022-09-12T12:31:02.181Z,74.89
2022-09-12T12:34:19.986Z,74.73
2022-09-12T12:37:22.185Z,74.11
2022-09-12T12:40:27.416Z,75.04
2022-09-12T12:43:32.608Z,73.19
2022-09-12T12:46:38.197Z,74.31
2022-09-12T12:49:40.562Z,75.01
2022-09-12T12:53:02.977Z,75.26
2022-09-12T12:56:05.512Z,73.78
2022-09-12T12:59:26.392Z,75.06
2022-09-12T13:02:41.168Z,74.12
2022-09-12T13:05:49.329Z,73.73
2022-09-12T13:09:33.747Z,75.36
2022-09-12T13:12:43.547Z,73.61
2022-09-12T13:15:51.242Z,74.02
2022-09-12T13:18:53.469Z,72.92
2022-09-12T13:21:57.048Z,73.76
2022-09-12T13:24:59.684Z,73.25
2022-09-12T13:28:11.385Z,71.01
2022-09-12T13:31:25.203Z,71.42
2022-09-12T13:34:56.256Z,72.01
2022-09-12T13:38:17.084Z,71.07
2022-09-12T13:41:44.137Z,69.93
2022-09-12T13:44:51.463Z,71.17
2022-09-12T13:48:05.114Z,72.14
2022-09-12T13:51:08.073Z,70.81
2022-09-12T13:54:20.308Z,70.41
2022-09-12T13:57:37.633Z,70.38
2022-09-12T14:00:40.025Z,70.92
2022-09-12T14:04:26.885Z,68.30
2022-09-12T14:07:29.156Z,69.32
2022-09-12T14:10:39.864Z,69.82
2022-09-12T14:13:42.857Z,69.65
2022-09-12T14:16:45.083Z,68.86
2022-09-12T14:19:48.317Z,67.89
2022-09-12T14:22:51.890Z,68.87
2022-09-12T14:25:56.452Z,68.71
2022-09-12T14:28:59.156Z,68.52
2022-09-12T14:32:03.687Z,66.78
2022-09-12T14:35:11.913Z,68.82
2022-09-12T14:38:17.225Z,67.01
2022-09-12T14:41:26.407Z,68.94
2022-09-12T14:44:30.056Z,67.48
2022-09-12T14:47:39.257Z,68.88
2022-09-12T14:50:41.760Z,67.53
2022-09-12T14:53:49.014Z,66.94
2022-09-12T14:56:59.470Z,68.46
2022-09-12T15:00:13.931Z,67.11
2022-09-12T15:03:28.718Z,68.06
2022-09-12T15:06:33.662Z,67.51
2022-09-12T15:09:36.178Z,67.56
2022-09-12T15:12:38.314Z,68.16
2022-09-12T15:15:59.994Z,68.91
2022-09-12T15:19:02.239Z,69.17
2022-09-12T15:22:04.671Z,69.40
2022-09-12T15:25:07.376Z,68.75
2022-09-12T15:28:19.630Z,67.95
2022-09-12T15:31:25.685Z,69.27
2022-09-12T15:34:28.040Z,70.60
2022-09-12T15:37:31.323Z,71.10
2022-09-12T15:40:33.612Z,71.70
2022-09-12T15:43:35.722Z,72.60
2022-09-12T15:46:38.215Z,73.68
2022-09-12T15:49:40.803Z,73.32
2022-09-12T15:52:43.282Z,74.31
2022-09-12T15:55:45.797Z,74.65
2022-09-12T15:58:59.244Z,72.95
2022-09-12T16:02:02.690Z,72.96
2022-09-12T16:05:05.673Z,72.95
2022-09-12T16:08:07.791Z,73.28
2022-09-12T16:11:25.065Z,72.34
2022-09-12T16:14:27.106Z,73.21
2022-09-12T16:17:29.547Z,73.17
2022-09-12T16:20:31.606Z,73.56
2022-09-12T16:23:35.612Z,74.15
2022-09-12T16:26:37.805Z,73.94
2022-09-12T16:29:41.436Z,74.67
2022-09-12T16:32:43.419Z,74.46
2022-09-12T16:35:45.756Z,74.35
2022-09-12T16:38:53.735Z,74.55
2022-09-12T16:41:56.163Z,74.85
2022-09-12T16:44:58.423Z,75.84
2022-09-12T16:48:00.787Z,76.41
2022-09-12T16:51:06.982Z,76.86
2022-09-12T16:54:09.972Z,75.90
2022-09-12T16:57:12.271Z,76.35
2022-09-12T17:00:15.227Z,76.51
2022-09-12T17:03:17.599Z,75.95
2022-09-12T17:06:20.375Z,75.29
2022-09-12T17:09:22.601Z,75.48
2022-09-12T17:12:25.219Z,75.70
2022-09-12T17:15:28.560Z,76.59
2022-09-12T17:18:31.144Z,76.81
2022-09-12T17:21:34.111Z,76.58
2022-09-12T17:24:36.630Z,76.82
2022-09-12T17:27:38.848Z,77.48
2022-09-12T17:30:41.907Z,77.23
2022-09-12T17:33:44.573Z,76.24
2022-09-12T17:36:48.448Z,77.43
2022-09-12T17:39:50.859Z,78.66
2022-09-12T17:42:54.003Z,78.00
2022-09-12T17:45:59.302Z,78.28
2022-09-12T17:49:03.892Z,77.96
2022-09-12T17:52:06.362Z,77.73
2022-09-12T17:55:09.199Z,79.26
2022-09-12T17:58:11.418Z,79.71
2022-09-12T18:01:33.522Z,79.67
2022-09-12T18:04:35.804Z,80.59
2022-09-12T18:07:43.937Z,83.26
2022-09-12T18:10:46.538Z,82.48
2022-09-12T18:13:49.126Z,82.27
2022-09-12T18:16:52.418Z,84.13
2022-09-12T18:19:55.451Z,84.37
2022-09-12T18:22:57.891Z,84.28
2022-09-12T18:26:02.152Z,83.66
2022-09-12T18:29:04.893Z,83.87
2022-09-12T18:32:09.642Z,82.81
2022-09-12T18:35:12.092Z,83.04
2022-09-12T18:38:14.452Z,82.62
2022-09-12T18:41:20.799Z,82.29
2022-09-12T18:44:23.589Z,81.18
2022-09-12T18:47:25.649Z,80.41
2022-09-12T18:50:28.079Z,80.11
2022-09-12T18:53:34.631Z,80.89
2022-09-12T18:56:38.455Z,80.79
2022-09-12T18:59:40.849Z,81.45
2022-09-12T19:02:43.516Z,81.49
2022-09-12T19:05:45.738Z,81.26
2022-09-12T19:08:50.153Z,81.28
2022-09-12T19:11:52.752Z,80.90
2022-09-12T19:14:55.998Z,80.33
2022-09-12T19:17:58.114Z,80.37
2022-09-12T19:21:04.151Z,79.96
2022-09-12T19:24:10.093Z,79.97
2022-09-12T19:27:20.221Z,79.62
2022-09-12T19:31:21.339Z,80.05
2022-09-12T19:34:29.545Z,79.14
2022-09-12T19:37:33.807Z,79.38
2022-09-12T19:40:44.348Z,78.67
2022-09-12T19:43:46.810Z,77.36
2022-09-12T19:46:49.319Z,79.38
2022-09-12T19:49:52.626Z,78.91
2022-09-12T19:52:55.051Z,78.71
2022-09-12T19:56:01.585Z,80.61
2022-09-12T19:59:03.967Z,82.75
2022-09-12T20:02:06.034Z,80.30
2022-09-12T20:05:08.520Z,79.27
2022-09-12T20:08:10.989Z,78.84
2022-09-12T20:11:19.034Z,80.82
2022-09-12T20:14:22.260Z,80.44
2022-09-12T20:17:24.581Z,81.32
2022-09-12T20:20:26.764Z,78.95
2022-09-12T20:23:29.132Z,77.84
2022-09-12T20:26:31.551Z,81.31
2022-09-12T20:29:33.865Z,81.95
2022-09-12T20:32:35.962Z,81.44
2022-09-12T20:35:38.280Z,81.18
2022-09-12T20:38:41.142Z,80.87
2022-09-12T20:41:43.761Z,80.61
2022-09-12T20:44:45.958Z,81.27
2022-09-12T20:47:48.216Z,81.85
2022-09-12T20:50:50.450Z,81.60
2022-09-12T20:53:56.324Z,82.07
2022-09-12T20:56:58.420Z,79.81
2022-09-12T21:00:00.891Z,81.18
2022-09-12T21:03:04.000Z,82.17
2022-09-12T21:06:07.580Z,81.51
2022-09-12T21:09:10.144Z,80.82
2022-09-12T21:12:12.383Z,79.96
2022-09-12T21:15:14.513Z,79.92
2022-09-12T21:18:16.771Z,81.59
2022-09-12T21:21:18.776Z,80.94
2022-09-12T21:24:21.058Z,80.41
2022-09-12T21:27:23.173Z,81.53
2022-09-12T21:30:25.457Z,82.18
2022-09-12T21:33:28.163Z,82.47
2022-09-12T21:36:30.488Z,82.89
2022-09-12T21:39:32.536Z,81.97
2022-09-12T21:42:34.735Z,81.01
2022-09-12T21:45:36.737Z,82.44
2022-09-12T21:48:39.110Z,82.97
2022-09-12T21:51:41.380Z,83.15
2022-09-12T21:54:43.665Z,83.90
2022-09-12T21:57:45.715Z,83.42
2022-09-12T22:00:48.136Z,81.89
2022-09-12T22:03:50.185Z,83.25
2022-09-12T22:06:52.551Z,83.44
2022-09-12T22:09:54.794Z,84.05
2022-09-12T22:12:57.019Z,82.27
2022-09-12T22:16:00.419Z,82.71
2022-09-12T22:19:02.776Z,82.89
2022-09-12T22:22:23.471Z,82.14
2022-09-12T22:25:25.958Z,81.46
2022-09-12T22:28:29.736Z,80.60
2022-09-12T22:31:32.027Z,82.10
2022-09-12T22:34:34.401Z,83.75
2022-09-12T22:37:36.692Z,82.24
2022-09-12T22:40:39.095Z,83.90
2022-09-12T22:43:41.485Z,82.15
2022-09-12T22:46:44.253Z,82.71
2022-09-12T22:49:47.733Z,83.76
2022-09-12T22:52:49.846Z,83.27
2022-09-12T22:55:52.031Z,82.93
2022-09-12T22:58:54.276Z,82.79
2022-09-12T23:01:57.254Z,81.48
2022-09-12T23:04:59.255Z,81.75
2022-09-12T23:08:01.645Z,82.39
2022-09-12T23:11:11.658Z,82.92
2022-09-12T23:14:14.026Z,83.24
2022-09-12T23:17:16.127Z,83.46
2022-09-12T23:20:18.493Z,83.77
2022-09-12T23:23:20.665Z,84.90
2022-09-12T23:26:24.993Z,84.22
2022-09-12T23:29:27.603Z,84.65
2022-09-12T23:32:30.397Z,85.51
2022-09-12T23:35:32.661Z,86.63
2022-09-12T23:38:35.829Z,85.01
2022-09-12T23:41:38.252Z,84.54
2022-09-12T23:44:40.809Z,85.16
2022-09-12T23:47:42.834Z,84.77
2022-09-12T23:50:46.512Z,84.79
2022-09-12T23:53:48.801Z,86.13
2022-09-12T23:56:51.722Z,88.87
2022-09-12T23:59:53.866Z,88.40
